createdAt,value
2018-05-02T00:06:35.248Z,53.00
2018-05-02T00:11:38.679Z,53.20
2018-05-02T00:16:46.231Z,53.30
2018-05-02T00:21:49.196Z,53.30
2018-05-02T00:26:55.558Z,53.40
2018-05-02T00:31:59.676Z,53.30
2018-05-02T00:37:04.482Z,53.30
2018-05-02T00:52:24.921Z,53.70
2018-05-02T01:02:37.409Z,54.00
2018-05-02T01:07:42.587Z,53.80
2018-05-02T01:12:46.164Z,53.50
2018-05-02T01:17:49.257Z,53.70
2018-05-02T01:22:52.332Z,53.90
2018-05-02T01:27:56.371Z,54.00
2018-05-02T01:38:11.926Z,54.50
2018-05-02T01:43:19.437Z,54.40
2018-05-02T01:48:23.329Z,54.50
2018-05-02T01:53:28.263Z,54.60
2018-05-02T01:58:33.636Z,54.40
2018-05-02T02:03:41.038Z,54.50
2018-05-02T02:08:44.549Z,54.40
2018-05-02T02:13:48.010Z,54.80
2018-05-02T02:18:51.010Z,55.00
2018-05-02T02:23:55.139Z,55.30
2018-05-02T02:29:00.434Z,55.00
2018-05-02T02:34:04.565Z,54.50
2018-05-02T02:39:14.883Z,54.90
2018-05-02T02:44:18.655Z,54.60
2018-05-02T02:49:21.863Z,54.70
2018-05-02T02:59:31.690Z,54.50
2018-05-02T03:04:34.556Z,54.50
2018-05-02T03:09:39.789Z,54.60
2018-05-02T03:14:42.904Z,54.60
2018-05-02T03:19:47.956Z,54.70
2018-05-02T03:24:51.407Z,54.30
2018-05-02T03:30:00.592Z,54.80
2018-05-02T03:40:12.171Z,54.70
2018-05-02T03:45:17.366Z,54.70
2018-05-02T03:50:23.654Z,54.50
2018-05-02T03:55:28.578Z,54.90
2018-05-02T04:00:46.735Z,54.70
2018-05-02T04:06:03.041Z,54.40
2018-05-02T04:11:07.472Z,54.60
2018-05-02T04:16:14.951Z,55.10
2018-05-02T04:21:19.120Z,55.20
2018-05-02T04:26:26.654Z,55.20
2018-05-02T04:31:30.344Z,54.80
2018-05-02T04:41:42.152Z,55.10
2018-05-02T04:46:45.463Z,55.40
2018-05-02T04:51:50.080Z,55.10
2018-05-02T04:56:53.782Z,54.70
2018-05-02T05:01:56.869Z,55.10
2018-05-02T05:06:59.744Z,55.10
2018-05-02T05:12:05.986Z,55.50
2018-05-02T05:17:13.299Z,56.00
2018-05-02T05:22:16.164Z,56.20
2018-05-02T05:27:24.448Z,56.70
2018-05-02T05:32:29.219Z,56.70
2018-05-02T05:37:33.834Z,56.80
2018-05-02T05:52:54.198Z,56.90
2018-05-02T05:57:59.478Z,57.20
2018-05-02T06:08:11.217Z,57.30
2018-05-02T06:13:14.684Z,57.20
2018-05-02T06:18:20.479Z,57.50
2018-05-02T06:23:27.999Z,57.20
2018-05-02T06:28:31.458Z,57.00
2018-05-02T06:33:35.623Z,57.00
2018-05-02T06:43:48.365Z,56.80
2018-05-02T06:48:53.911Z,57.10
2018-05-02T06:53:59.285Z,57.20
2018-05-02T06:59:03.822Z,56.50
2018-05-02T07:04:11.699Z,56.50
2018-05-02T07:09:17.197Z,56.10
2018-05-02T07:14:22.220Z,56.60
2018-05-02T07:19:26.572Z,55.80
2018-05-02T07:24:34.679Z,55.60
2018-05-02T07:29:39.644Z,55.70
2018-05-02T07:34:47.078Z,55.70
2018-05-02T07:39:54.255Z,55.90
2018-05-02T07:50:11.700Z,55.10
2018-05-02T07:55:17.178Z,54.60
2018-05-02T08:05:33.340Z,54.00
2018-05-02T08:10:43.690Z,52.80
2018-05-02T08:21:00.210Z,51.00
2018-05-02T08:26:08.309Z,50.50
2018-05-02T08:31:15.152Z,48.70
2018-05-02T08:36:26.180Z,49.60
2018-05-02T09:02:33.930Z,43.80
2018-05-02T09:07:42.180Z,43.80
2018-05-02T09:12:53.652Z,44.10
2018-05-02T09:23:09.214Z,46.10
2018-05-02T09:28:19.566Z,43.90
2018-05-02T09:49:13.867Z,45.70
2018-05-02T09:54:22.546Z,45.40
2018-05-02T10:04:39.393Z,45.20
2018-05-02T10:09:46.842Z,45.10
2018-05-02T10:14:58.392Z,44.90
2018-05-02T10:20:05.702Z,44.60
2018-05-02T10:35:33.225Z,43.60
2018-05-02T10:40:38.643Z,44.00
2018-05-02T10:45:43.550Z,43.50
2018-05-02T10:56:11.338Z,44.20
2018-05-02T11:01:30.116Z,43.30
2018-05-02T11:06:35.053Z,43.20
2018-05-02T11:16:55.237Z,42.80
2018-05-02T11:22:00.510Z,42.60
2018-05-02T11:32:17.602Z,42.50
2018-05-02T11:42:30.580Z,42.70
2018-05-02T11:52:49.412Z,42.90
2018-05-02T11:57:55.176Z,43.30
2018-05-02T12:08:06.649Z,43.10
2018-05-02T12:13:13.273Z,43.00
2018-05-02T12:18:24.358Z,42.90
2018-05-02T12:23:30.857Z,42.80
2018-05-02T12:28:38.855Z,42.70
2018-05-02T12:33:46.316Z,42.50
2018-05-02T12:38:51.300Z,42.50
2018-05-02T12:43:56.063Z,42.60
2018-05-02T12:54:08.176Z,42.20
2018-05-02T12:59:11.923Z,42.50
2018-05-02T13:04:15.617Z,41.50
2018-05-02T13:14:28.858Z,41.50
2018-05-02T13:19:35.957Z,41.40
2018-05-02T13:24:40.753Z,41.30
2018-05-02T13:29:47.466Z,41.60
2018-05-02T13:34:54.016Z,41.20
2018-05-02T13:39:58.725Z,41.10
2018-05-02T13:45:03.574Z,41.40
2018-05-02T14:00:24.178Z,42.00
2018-05-02T14:05:27.819Z,41.90
2018-05-02T14:10:33.110Z,42.60
2018-05-02T14:15:38.242Z,42.10
2018-05-02T14:20:41.791Z,42.30
2018-05-02T14:25:45.993Z,42.90
2018-05-02T14:30:52.554Z,42.80
2018-05-02T14:35:57.976Z,43.10
2018-05-02T14:41:04.720Z,43.50
2018-05-02T14:46:07.915Z,42.70
2018-05-02T14:51:12.540Z,43.10
2018-05-02T14:56:18.173Z,42.40
2018-05-02T15:01:24.126Z,42.20
2018-05-02T15:06:31.407Z,42.50
2018-05-02T15:11:43.346Z,42.70
2018-05-02T15:22:05.840Z,43.60
2018-05-02T15:27:11.486Z,45.00
2018-05-02T15:32:15.645Z,44.90
2018-05-02T15:37:22.554Z,45.00
2018-05-02T15:42:26.417Z,45.70
2018-05-02T15:47:31.524Z,46.10
2018-05-02T15:52:38.558Z,46.10
2018-05-02T16:02:56.213Z,46.20
2018-05-02T16:08:02.529Z,46.40
2018-05-02T16:18:20.070Z,46.50
2018-05-02T16:23:25.238Z,46.30
2018-05-02T16:28:30.993Z,46.70
2018-05-02T16:33:36.151Z,46.60
2018-05-02T16:38:45.316Z,46.90
2018-05-02T16:43:50.042Z,47.00
2018-05-02T16:48:54.059Z,47.00
2018-05-02T16:53:59.862Z,47.30
2018-05-02T16:59:04.822Z,47.50
2018-05-02T17:04:09.902Z,47.70
2018-05-02T17:09:12.932Z,47.90
2018-05-02T17:14:17.244Z,48.00
2018-05-02T17:19:26.880Z,48.10
2018-05-02T17:29:40.294Z,48.40
2018-05-02T17:34:43.517Z,48.10
2018-05-02T17:39:47.009Z,48.60
2018-05-02T17:44:50.609Z,48.80
2018-05-02T17:49:54.462Z,48.90
2018-05-02T17:54:58.731Z,49.40
2018-05-02T18:00:02.781Z,49.40
2018-05-02T18:05:06.115Z,49.40
2018-05-02T18:10:10.191Z,49.80
2018-05-02T18:15:16.566Z,49.70
2018-05-02T18:20:20.544Z,49.70
2018-05-02T18:25:25.556Z,50.00
2018-05-02T18:30:29.293Z,50.80
2018-05-02T18:35:33.724Z,50.90
2018-05-02T18:40:36.966Z,51.10
2018-05-02T18:45:40.592Z,51.30
2018-05-02T18:50:44.048Z,51.20
2018-05-02T18:55:48.529Z,51.50
2018-05-02T19:00:52.189Z,51.40
2018-05-02T19:05:55.189Z,52.30
2018-05-02T19:10:58.805Z,52.20
2018-05-02T19:16:02.756Z,52.70
2018-05-02T19:26:18.242Z,53.00
2018-05-02T19:36:34.485Z,53.20
2018-05-02T19:41:43.692Z,53.20
2018-05-02T19:46:50.447Z,53.10
2018-05-02T19:51:59.758Z,53.20
2018-05-02T19:57:04.610Z,53.40
2018-05-02T20:02:15.749Z,53.60
2018-05-02T20:07:24.885Z,53.20
2018-05-02T20:12:34.176Z,53.60
2018-05-02T20:17:37.748Z,54.00
2018-05-02T20:22:40.821Z,54.50
2018-05-02T20:27:44.375Z,53.90
2018-05-02T20:32:47.152Z,54.20
2018-05-02T20:37:51.633Z,54.30
2018-05-02T20:42:55.852Z,54.50
2018-05-02T20:47:59.274Z,54.40
2018-05-02T20:53:04.056Z,54.50
2018-05-02T20:58:07.127Z,54.50
2018-05-02T21:03:10.276Z,54.80
2018-05-02T21:08:16.336Z,55.00
2018-05-02T21:13:19.798Z,55.20
2018-05-02T21:18:22.798Z,55.30
2018-05-02T21:23:25.507Z,55.60
2018-05-02T21:28:29.786Z,56.20
2018-05-02T21:33:32.664Z,56.10
2018-05-02T21:38:36.623Z,56.30
2018-05-02T21:43:41.711Z,56.50
2018-05-02T21:48:44.616Z,56.70
2018-05-02T21:53:47.548Z,56.80
2018-05-02T21:58:51.077Z,57.00
2018-05-02T22:03:56.439Z,57.30
2018-05-02T22:08:59.932Z,57.50
2018-05-02T22:14:02.800Z,57.90
2018-05-02T22:19:05.853Z,58.00
2018-05-02T22:24:09.532Z,57.80
2018-05-02T22:29:13.566Z,58.30
2018-05-02T22:34:16.493Z,58.40
2018-05-02T22:39:23.193Z,58.50
2018-05-02T22:44:26.309Z,58.70
2018-05-02T22:49:29.304Z,58.70
2018-05-02T22:54:31.832Z,59.00
2018-05-02T22:59:35.822Z,59.10
2018-05-02T23:04:39.171Z,59.20
2018-05-02T23:09:42.577Z,59.30
2018-05-02T23:14:45.501Z,59.80
2018-05-02T23:19:49.002Z,59.60
2018-05-02T23:24:53.350Z,59.80
2018-05-02T23:29:59.041Z,60.00
2018-05-02T23:35:03.720Z,60.00
2018-05-02T23:40:07.257Z,59.90
2018-05-02T23:45:10.934Z,60.30
2018-05-02T23:50:13.881Z,60.30
2018-05-02T23:55:17.560Z,60.00
